sensor_id;sensor_type;location;lat;lon;timestamp;pressure;altitude;pressure_sealevel;temperature;humidity
63281;BME280;49406;51.044;3.766;2023-05-21T00:02:21;101904.98;;;13.92;100.00
63281;BME280;49406;51.044;3.766;2023-05-21T00:04:55;101905.46;;;13.88;100.00
63281;BME280;49406;51.044;3.766;2023-05-21T00:07:30;101898.73;;;13.82;100.00
63281;BME280;49406;51.044;3.766;2023-05-21T00:10:06;101899.38;;;13.78;100.00
63281;BME280;49406;51.044;3.766;2023-05-21T00:12:41;101895.30;;;13.76;100.00
63281;BME280;49406;51.044;3.766;2023-05-21T00:15:15;101896.77;;;13.81;100.00
63281;BME280;49406;51.044;3.766;2023-05-21T00:17:50;101897.09;;;13.79;100.00
63281;BME280;49406;51.044;3.766;2023-05-21T00:20:25;101899.52;;;13.76;100.00
63281;BME280;49406;51.044;3.766;2023-05-21T00:23:01;101901.92;;;13.72;100.00
63281;BME280;49406;51.044;3.766;2023-05-21T00:25:36;101908.40;;;13.69;100.00
63281;BME280;49406;51.044;3.766;2023-05-21T00:28:10;101902.55;;;13.65;100.00
63281;BME280;49406;51.044;3.766;2023-05-21T00:30:45;101900.06;;;13.62;100.00
63281;BME280;49406;51.044;3.766;2023-05-21T00:33:20;101900.33;;;13.70;100.00
63281;BME280;49406;51.044;3.766;2023-05-21T00:35:55;101899.64;;;13.72;100.00
63281;BME280;49406;51.044;3.766;2023-05-21T00:38:30;101893.27;;;13.67;100.00
63281;BME280;49406;51.044;3.766;2023-05-21T00:41:05;101889.89;;;13.63;100.00
63281;BME280;49406;51.044;3.766;2023-05-21T00:43:39;101891.58;;;13.59;100.00
63281;BME280;49406;51.044;3.766;2023-05-21T00:46:16;101890.31;;;13.57;100.00
63281;BME280;49406;51.044;3.766;2023-05-21T00:48:52;101893.25;;;13.66;100.00
63281;BME280;49406;51.044;3.766;2023-05-21T00:51:27;101889.91;;;13.66;100.00
63281;BME280;49406;51.044;3.766;2023-05-21T00:54:02;101891.65;;;13.63;99.98
63281;BME280;49406;51.044;3.766;2023-05-21T00:56:37;101890.13;;;13.55;100.00
63281;BME280;49406;51.044;3.766;2023-05-21T00:59:12;101889.20;;;13.51;99.98
63281;BME280;49406;51.044;3.766;2023-05-21T01:01:49;101891.28;;;13.48;99.85
63281;BME280;49406;51.044;3.766;2023-05-21T01:04:28;101890.77;;;13.50;99.86
63281;BME280;49406;51.044;3.766;2023-05-21T01:07:03;101890.64;;;13.54;99.41
63281;BME280;49406;51.044;3.766;2023-05-21T01:09:38;101887.27;;;13.52;99.60
63281;BME280;49406;51.044;3.766;2023-05-21T01:12:14;101887.25;;;13.49;99.86
63281;BME280;49406;51.044;3.766;2023-05-21T01:14:49;101892.79;;;13.43;100.00
63281;BME280;49406;51.044;3.766;2023-05-21T01:17:24;101895.00;;;13.39;99.98
63281;BME280;49406;51.044;3.766;2023-05-21T01:19:59;101892.50;;;13.34;100.00
63281;BME280;49406;51.044;3.766;2023-05-21T01:22:38;101888.08;;;13.32;100.00
63281;BME280;49406;51.044;3.766;2023-05-21T01:25:15;101878.34;;;13.41;100.00
63281;BME280;49406;51.044;3.766;2023-05-21T01:27:50;101879.54;;;13.38;100.00
63281;BME280;49406;51.044;3.766;2023-05-21T01:30:25;101884.08;;;13.36;100.00
63281;BME280;49406;51.044;3.766;2023-05-21T01:33:03;101882.07;;;13.29;100.00
63281;BME280;49406;51.044;3.766;2023-05-21T01:35:40;101883.37;;;13.23;100.00
63281;BME280;49406;51.044;3.766;2023-05-21T01:38:19;101882.25;;;13.18;100.00
63281;BME280;49406;51.044;3.766;2023-05-21T01:40:57;101881.60;;;13.22;100.00
63281;BME280;49406;51.044;3.766;2023-05-21T01:43:40;101882.48;;;13.22;100.00
63281;BME280;49406;51.044;3.766;2023-05-21T01:46:18;101879.41;;;13.17;100.00
63281;BME280;49406;51.044;3.766;2023-05-21T01:48:55;101885.77;;;13.09;100.00
63281;BME280;49406;51.044;3.766;2023-05-21T01:51:30;101887.61;;;13.02;100.00
63281;BME280;49406;51.044;3.766;2023-05-21T01:54:05;101890.89;;;12.98;100.00
63281;BME280;49406;51.044;3.766;2023-05-21T01:56:40;101888.48;;;13.03;100.00
63281;BME280;49406;51.044;3.766;2023-05-21T01:59:14;101888.45;;;13.00;100.00
63281;BME280;49406;51.044;3.766;2023-05-21T02:01:50;101888.05;;;12.96;100.00
63281;BME280;49406;51.044;3.766;2023-05-21T02:04:25;101889.15;;;12.88;100.00
63281;BME280;49406;51.044;3.766;2023-05-21T02:06:59;101888.55;;;12.83;100.00
63281;BME280;49406;51.044;3.766;2023-05-21T02:09:34;101888.33;;;12.79;100.00
63281;BME280;49406;51.044;3.766;2023-05-21T02:12:09;101886.98;;;12.84;100.00
63281;BME280;49406;51.044;3.766;2023-05-21T02:14:43;101886.15;;;12.87;100.00
63281;BME280;49406;51.044;3.766;2023-05-21T02:17:21;101880.83;;;12.82;100.00
63281;BME280;49406;51.044;3.766;2023-05-21T02:19:56;101883.91;;;12.78;100.00
63281;BME280;49406;51.044;3.766;2023-05-21T02:22:39;101875.08;;;12.75;100.00
63281;BME280;49406;51.044;3.766;2023-05-21T02:25:16;101876.04;;;12.79;100.00
63281;BME280;49406;51.044;3.766;2023-05-21T02:27:51;101871.31;;;12.80;100.00
63281;BME280;49406;51.044;3.766;2023-05-21T02:30:29;101872.89;;;12.80;100.00
63281;BME280;49406;51.044;3.766;2023-05-21T02:33:03;101873.90;;;12.77;100.00
63281;BME280;49406;51.044;3.766;2023-05-21T02:35:38;101871.87;;;12.72;100.00
63281;BME280;49406;51.044;3.766;2023-05-21T02:38:13;101876.60;;;12.72;100.00
63281;BME280;49406;51.044;3.766;2023-05-21T02:40:51;101873.89;;;12.66;100.00
63281;BME280;49406;51.044;3.766;2023-05-21T02:43:26;101877.06;;;12.78;100.00
63281;BME280;49406;51.044;3.766;2023-05-21T02:46:00;101877.99;;;12.81;100.00
63281;BME280;49406;51.044;3.766;2023-05-21T02:48:35;101880.61;;;12.80;100.00
63281;BME280;49406;51.044;3.766;2023-05-21T02:51:09;101876.83;;;12.75;100.00
63281;BME280;49406;51.044;3.766;2023-05-21T02:53:44;101874.84;;;12.71;100.00
63281;BME280;49406;51.044;3.766;2023-05-21T02:56:19;101875.67;;;12.68;100.00
63281;BME280;49406;51.044;3.766;2023-05-21T02:58:53;101875.45;;;12.65;100.00
63281;BME280;49406;51.044;3.766;2023-05-21T03:01:28;101870.64;;;12.71;100.00
63281;BME280;49406;51.044;3.766;2023-05-21T03:04:03;101874.89;;;12.75;100.00
63281;BME280;49406;51.044;3.766;2023-05-21T03:06:38;101879.46;;;12.75;100.00
63281;BME280;49406;51.044;3.766;2023-05-21T03:09:12;101875.27;;;12.76;100.00
63281;BME280;49406;51.044;3.766;2023-05-21T03:11:47;101874.70;;;12.73;100.00
63281;BME280;49406;51.044;3.766;2023-05-21T03:14:21;101873.63;;;12.72;100.00
63281;BME280;49406;51.044;3.766;2023-05-21T03:16:57;101868.70;;;12.71;100.00
63281;BME280;49406;51.044;3.766;2023-05-21T03:19:31;101864.54;;;12.74;100.00
63281;BME280;49406;51.044;3.766;2023-05-21T03:22:08;101859.38;;;12.81;100.00
63281;BME280;49406;51.044;3.766;2023-05-21T03:24:43;101859.22;;;12.81;100.00
63281;BME280;49406;51.044;3.766;2023-05-21T03:27:18;101865.15;;;12.79;100.00
63281;BME280;49406;51.044;3.766;2023-05-21T03:29:53;101867.94;;;12.77;100.00
63281;BME280;49406;51.044;3.766;2023-05-21T03:32:28;101862.70;;;12.79;100.00
63281;BME280;49406;51.044;3.766;2023-05-21T03:35:03;101862.48;;;12.89;100.00
63281;BME280;49406;51.044;3.766;2023-05-21T03:37:38;101865.41;;;12.96;100.00
63281;BME280;49406;51.044;3.766;2023-05-21T03:40:13;101862.12;;;13.00;100.00
63281;BME280;49406;51.044;3.766;2023-05-21T03:42:48;101864.21;;;12.99;100.00
63281;BME280;49406;51.044;3.766;2023-05-21T03:45:21;101855.29;;;13.00;100.00
63281;BME280;49406;51.044;3.766;2023-05-21T03:47:56;101862.15;;;13.02;100.00
63281;BME280;49406;51.044;3.766;2023-05-21T03:50:30;101869.19;;;13.04;100.00
63281;BME280;49406;51.044;3.766;2023-05-21T03:53:05;101875.85;;;13.14;100.00
63281;BME280;49406;51.044;3.766;2023-05-21T03:55:40;101872.71;;;13.16;100.00
63281;BME280;49406;51.044;3.766;2023-05-21T03:58:14;101872.84;;;13.13;100.00
63281;BME280;49406;51.044;3.766;2023-05-21T04:00:49;101874.70;;;13.09;100.00
63281;BME280;49406;51.044;3.766;2023-05-21T04:03:23;101872.73;;;13.07;100.00
63281;BME280;49406;51.044;3.766;2023-05-21T04:05:58;101868.67;;;13.04;100.00
63281;BME280;49406;51.044;3.766;2023-05-21T04:08:33;101870.02;;;13.12;100.00
63281;BME280;49406;51.044;3.766;2023-05-21T04:11:08;101868.35;;;13.17;100.00
63281;BME280;49406;51.044;3.766;2023-05-21T04:13:43;101867.52;;;13.20;100.00
63281;BME280;49406;51.044;3.766;2023-05-21T04:16:18;101872.19;;;13.16;100.00
63281;BME280;49406;51.044;3.766;2023-05-21T04:18:52;101871.65;;;13.15;100.00
63281;BME280;49406;51.044;3.766;2023-05-21T04:21:28;101871.30;;;13.15;100.00
63281;BME280;49406;51.044;3.766;2023-05-21T04:24:04;101870.28;;;13.17;100.00
63281;BME280;49406;51.044;3.766;2023-05-21T04:26:38;101869.00;;;13.26;100.00
63281;BME280;49406;51.044;3.766;2023-05-21T04:29:14;101868.89;;;13.28;100.00
63281;BME280;49406;51.044;3.766;2023-05-21T04:31:50;101867.13;;;13.28;100.00
63281;BME280;49406;51.044;3.766;2023-05-21T04:34:24;101872.71;;;13.27;100.00
63281;BME280;49406;51.044;3.766;2023-05-21T04:36:59;101874.68;;;13.28;100.00
63281;BME280;49406;51.044;3.766;2023-05-21T04:39:34;101871.70;;;13.28;100.00
63281;BME280;49406;51.044;3.766;2023-05-21T04:42:09;101868.05;;;13.32;100.00
63281;BME280;49406;51.044;3.766;2023-05-21T04:44:43;101867.45;;;13.42;100.00
63281;BME280;49406;51.044;3.766;2023-05-21T04:47:18;101865.74;;;13.44;100.00
63281;BME280;49406;51.044;3.766;2023-05-21T04:49:53;101866.28;;;13.44;100.00
63281;BME280;49406;51.044;3.766;2023-05-21T04:52:27;101868.52;;;13.42;100.00
63281;BME280;49406;51.044;3.766;2023-05-21T04:55:03;101868.89;;;13.43;100.00
63281;BME280;49406;51.044;3.766;2023-05-21T04:57:37;101868.94;;;13.46;100.00
63281;BME280;49406;51.044;3.766;2023-05-21T05:00:13;101868.27;;;13.48;100.00
63281;BME280;49406;51.044;3.766;2023-05-21T05:02:48;101870.19;;;13.62;100.00
63281;BME280;49406;51.044;3.766;2023-05-21T05:05:23;101876.09;;;13.72;100.00
63281;BME280;49406;51.044;3.766;2023-05-21T05:07:57;101876.72;;;13.78;100.00
63281;BME280;49406;51.044;3.766;2023-05-21T05:10:32;101881.30;;;13.81;100.00
63281;BME280;49406;51.044;3.766;2023-05-21T05:13:07;101875.38;;;13.86;100.00
63281;BME280;49406;51.044;3.766;2023-05-21T05:15:41;101872.60;;;13.90;100.00
63281;BME280;49406;51.044;3.766;2023-05-21T05:18:16;101874.98;;;13.99;100.00
63281;BME280;49406;51.044;3.766;2023-05-21T05:20:51;101873.59;;;14.17;100.00
63281;BME280;49406;51.044;3.766;2023-05-21T05:23:26;101877.73;;;14.28;100.00
63281;BME280;49406;51.044;3.766;2023-05-21T05:26:00;101876.05;;;14.35;100.00
63281;BME280;49406;51.044;3.766;2023-05-21T05:28:35;101875.55;;;14.39;100.00
63281;BME280;49406;51.044;3.766;2023-05-21T05:31:09;101877.67;;;14.41;100.00
63281;BME280;49406;51.044;3.766;2023-05-21T05:33:44;101869.41;;;14.41;100.00
63281;BME280;49406;51.044;3.766;2023-05-21T05:36:19;101869.63;;;14.43;100.00
63281;BME280;49406;51.044;3.766;2023-05-21T05:38:52;101871.37;;;14.59;100.00
63281;BME280;49406;51.044;3.766;2023-05-21T05:41:27;101869.70;;;14.72;100.00
63281;BME280;49406;51.044;3.766;2023-05-21T05:44:01;101868.03;;;14.81;100.00
63281;BME280;49406;51.044;3.766;2023-05-21T05:46:36;101875.27;;;14.88;100.00
63281;BME280;49406;51.044;3.766;2023-05-21T05:49:11;101872.33;;;14.94;99.98
63281;BME280;49406;51.044;3.766;2023-05-21T05:51:46;101874.67;;;15.04;99.98
63281;BME280;49406;51.044;3.766;2023-05-21T05:54:20;101872.98;;;15.14;99.70
63281;BME280;49406;51.044;3.766;2023-05-21T05:56:55;101873.91;;;15.24;99.02
63281;BME280;49406;51.044;3.766;2023-05-21T05:59:30;101870.48;;;15.41;98.45
63281;BME280;49406;51.044;3.766;2023-05-21T06:02:06;101867.58;;;15.59;98.21
63281;BME280;49406;51.044;3.766;2023-05-21T06:04:40;101859.73;;;15.78;97.50
63281;BME280;49406;51.044;3.766;2023-05-21T06:07:15;101858.70;;;15.94;95.79
63281;BME280;49406;51.044;3.766;2023-05-21T06:09:49;101864.20;;;16.10;95.31
63281;BME280;49406;51.044;3.766;2023-05-21T06:12:25;101869.70;;;16.34;94.69
63281;BME280;49406;51.044;3.766;2023-05-21T06:15:00;101870.96;;;16.63;92.90
63281;BME280;49406;51.044;3.766;2023-05-21T06:17:35;101867.42;;;16.85;92.45
63281;BME280;49406;51.044;3.766;2023-05-21T06:20:10;101868.80;;;17.09;90.89
63281;BME280;49406;51.044;3.766;2023-05-21T06:22:45;101863.99;;;17.21;89.50
63281;BME280;49406;51.044;3.766;2023-05-21T06:25:20;101865.00;;;17.37;89.48
63281;BME280;49406;51.044;3.766;2023-05-21T06:27:54;101870.73;;;17.61;86.97
63281;BME280;49406;51.044;3.766;2023-05-21T06:30:29;101865.77;;;17.70;85.86
63281;BME280;49406;51.044;3.766;2023-05-21T06:33:04;101863.05;;;17.81;86.20
63281;BME280;49406;51.044;3.766;2023-05-21T06:35:39;101867.73;;;18.01;84.84
63281;BME280;49406;51.044;3.766;2023-05-21T06:38:14;101867.39;;;18.24;84.77
63281;BME280;49406;51.044;3.766;2023-05-21T06:40:49;101868.74;;;18.54;82.79
63281;BME280;49406;51.044;3.766;2023-05-21T06:43:23;101869.97;;;18.80;81.33
63281;BME280;49406;51.044;3.766;2023-05-21T06:45:58;101871.34;;;18.85;79.56
63281;BME280;49406;51.044;3.766;2023-05-21T06:48:33;101869.70;;;18.89;80.19
63281;BME280;49406;51.044;3.766;2023-05-21T06:51:08;101871.23;;;19.12;79.19
63281;BME280;49406;51.044;3.766;2023-05-21T06:53:43;101869.58;;;19.34;77.48
63281;BME280;49406;51.044;3.766;2023-05-21T06:56:17;101872.25;;;19.62;77.57
63281;BME280;49406;51.044;3.766;2023-05-21T06:58:52;101877.61;;;19.99;75.37
63281;BME280;49406;51.044;3.766;2023-05-21T07:01:27;101873.15;;;20.37;75.18
63281;BME280;49406;51.044;3.766;2023-05-21T07:04:02;101878.09;;;20.71;72.50
63281;BME280;49406;51.044;3.766;2023-05-21T07:06:38;101873.41;;;20.75;69.66
63281;BME280;49406;51.044;3.766;2023-05-21T07:09:13;101871.95;;;20.77;70.04
63281;BME280;49406;51.044;3.766;2023-05-21T07:11:47;101872.29;;;20.89;68.89
63281;BME280;49406;51.044;3.766;2023-05-21T07:14:23;101873.05;;;21.05;69.35
63281;BME280;49406;51.044;3.766;2023-05-21T07:16:58;101862.25;;;21.21;68.16
63281;BME280;49406;51.044;3.766;2023-05-21T07:19:32;101858.30;;;21.23;68.12
63281;BME280;49406;51.044;3.766;2023-05-21T07:22:07;101863.02;;;21.18;67.46
63281;BME280;49406;51.044;3.766;2023-05-21T07:24:41;101873.92;;;20.77;67.29
63281;BME280;49406;51.044;3.766;2023-05-21T07:27:16;101871.38;;;20.25;68.95
63281;BME280;49406;51.044;3.766;2023-05-21T07:29:51;101873.70;;;20.12;70.91
63281;BME280;49406;51.044;3.766;2023-05-21T07:32:26;101870.23;;;20.41;71.31
63281;BME280;49406;51.044;3.766;2023-05-21T07:35:02;101872.61;;;20.60;70.25
63281;BME280;49406;51.044;3.766;2023-05-21T07:37:37;101872.45;;;20.68;70.57
63281;BME280;49406;51.044;3.766;2023-05-21T07:40:13;101874.23;;;20.69;70.02
63281;BME280;49406;51.044;3.766;2023-05-21T07:42:47;101873.09;;;20.53;70.11
63281;BME280;49406;51.044;3.766;2023-05-21T07:45:22;101874.38;;;20.50;70.22
63281;BME280;49406;51.044;3.766;2023-05-21T07:47:57;101874.21;;;20.49;70.19
63281;BME280;49406;51.044;3.766;2023-05-21T07:50:31;101879.19;;;20.70;70.16
63281;BME280;49406;51.044;3.766;2023-05-21T07:53:06;101883.59;;;20.61;69.50
63281;BME280;49406;51.044;3.766;2023-05-21T07:55:41;101884.95;;;20.43;70.33
63281;BME280;49406;51.044;3.766;2023-05-21T07:58:19;101884.43;;;20.30;70.61
63281;BME280;49406;51.044;3.766;2023-05-21T08:00:55;101879.48;;;20.18;71.21
63281;BME280;49406;51.044;3.766;2023-05-21T08:03:30;101876.45;;;20.19;71.71
63281;BME280;49406;51.044;3.766;2023-05-21T08:06:05;101869.38;;;20.17;70.98
63281;BME280;49406;51.044;3.766;2023-05-21T08:08:40;101862.94;;;20.20;71.84
63281;BME280;49406;51.044;3.766;2023-05-21T08:11:15;101862.00;;;20.22;72.47
63281;BME280;49406;51.044;3.766;2023-05-21T08:13:50;101860.52;;;20.38;71.88
63281;BME280;49406;51.044;3.766;2023-05-21T08:16:25;101853.15;;;20.85;72.05
63281;BME280;49406;51.044;3.766;2023-05-21T08:18:59;101849.04;;;21.50;70.24
63281;BME280;49406;51.044;3.766;2023-05-21T08:21:34;101846.80;;;21.95;66.15
63281;BME280;49406;51.044;3.766;2023-05-21T08:24:08;101849.15;;;21.93;64.47
63281;BME280;49406;51.044;3.766;2023-05-21T08:26:43;101847.79;;;22.07;64.20
63281;BME280;49406;51.044;3.766;2023-05-21T08:29:19;101846.99;;;22.11;64.72
63281;BME280;49406;51.044;3.766;2023-05-21T08:31:54;101844.24;;;21.90;63.71
63281;BME280;49406;51.044;3.766;2023-05-21T08:34:28;101838.59;;;21.73;63.91
63281;BME280;49406;51.044;3.766;2023-05-21T08:37:04;101845.13;;;21.90;62.46
63281;BME280;49406;51.044;3.766;2023-05-21T08:39:38;101842.30;;;21.90;62.42
63281;BME280;49406;51.044;3.766;2023-05-21T08:42:23;101848.10;;;21.93;62.94
63281;BME280;49406;51.044;3.766;2023-05-21T08:45:00;101848.48;;;21.99;61.88
63281;BME280;49406;51.044;3.766;2023-05-21T08:47:39;101845.77;;;22.02;61.80
63281;BME280;49406;51.044;3.766;2023-05-21T08:50:16;101841.96;;;22.20;63.09
63281;BME280;49406;51.044;3.766;2023-05-21T08:52:51;101832.92;;;22.67;60.80
63281;BME280;49406;51.044;3.766;2023-05-21T08:55:27;101838.20;;;22.91;60.19
63281;BME280;49406;51.044;3.766;2023-05-21T08:58:04;101838.99;;;23.14;58.76
63281;BME280;49406;51.044;3.766;2023-05-21T09:00:39;101839.89;;;23.38;58.52
63281;BME280;49406;51.044;3.766;2023-05-21T09:03:15;101839.64;;;23.65;57.60
63281;BME280;49406;51.044;3.766;2023-05-21T09:05:50;101842.88;;;23.76;57.02
63281;BME280;49406;51.044;3.766;2023-05-21T09:08:31;101843.92;;;23.47;56.76
63281;BME280;49406;51.044;3.766;2023-05-21T09:11:08;101844.23;;;23.05;57.20
63281;BME280;49406;51.044;3.766;2023-05-21T09:13:44;101843.83;;;22.73;58.62
63281;BME280;49406;51.044;3.766;2023-05-21T09:16:19;101840.70;;;22.49;59.82
63281;BME280;49406;51.044;3.766;2023-05-21T09:18:54;101841.91;;;22.22;60.59
63281;BME280;49406;51.044;3.766;2023-05-21T09:21:29;101847.77;;;22.09;61.54
63281;BME280;49406;51.044;3.766;2023-05-21T09:24:02;101846.81;;;22.03;61.73
63281;BME280;49406;51.044;3.766;2023-05-21T09:26:37;101848.85;;;21.75;61.98
63281;BME280;49406;51.044;3.766;2023-05-21T09:29:14;101842.49;;;21.49;63.54
63281;BME280;49406;51.044;3.766;2023-05-21T09:31:50;101834.14;;;21.48;64.33
63281;BME280;49406;51.044;3.766;2023-05-21T09:34:26;101838.83;;;21.54;64.73
63281;BME280;49406;51.044;3.766;2023-05-21T09:36:59;101840.33;;;21.66;63.79
63281;BME280;49406;51.044;3.766;2023-05-21T09:39:34;101833.28;;;21.79;63.71
63281;BME280;49406;51.044;3.766;2023-05-21T09:42:09;101824.64;;;21.75;64.47
63281;BME280;49406;51.044;3.766;2023-05-21T09:44:45;101823.73;;;21.76;65.05
63281;BME280;49406;51.044;3.766;2023-05-21T09:47:23;101828.95;;;21.97;65.29
63281;BME280;49406;51.044;3.766;2023-05-21T09:50:00;101822.34;;;22.21;63.69
63281;BME280;49406;51.044;3.766;2023-05-21T09:52:36;101830.36;;;22.21;63.20
63281;BME280;49406;51.044;3.766;2023-05-21T09:55:12;101816.44;;;22.15;63.61
63281;BME280;49406;51.044;3.766;2023-05-21T09:57:48;101817.17;;;22.22;63.75
63281;BME280;49406;51.044;3.766;2023-05-21T10:00:24;101810.53;;;22.16;63.74
63281;BME280;49406;51.044;3.766;2023-05-21T10:03:01;101808.86;;;22.04;63.74
63281;BME280;49406;51.044;3.766;2023-05-21T10:05:41;101809.59;;;22.02;64.56
63281;BME280;49406;51.044;3.766;2023-05-21T10:08:17;101807.07;;;22.26;64.64
63281;BME280;49406;51.044;3.766;2023-05-21T10:10:52;101804.73;;;22.41;63.07
63281;BME280;49406;51.044;3.766;2023-05-21T10:13:26;101812.08;;;22.47;63.29
63281;BME280;49406;51.044;3.766;2023-05-21T10:16:02;101802.40;;;22.76;62.44
63281;BME280;49406;51.044;3.766;2023-05-21T10:18:38;101803.49;;;23.26;61.05
63281;BME280;49406;51.044;3.766;2023-05-21T10:21:13;101794.11;;;23.47;59.71
63281;BME280;49406;51.044;3.766;2023-05-21T10:23:48;101791.36;;;23.68;59.58
63281;BME280;49406;51.044;3.766;2023-05-21T10:26:24;101789.36;;;23.81;58.93
63281;BME280;49406;51.044;3.766;2023-05-21T10:28:57;101789.38;;;24.07;58.56
63281;BME280;49406;51.044;3.766;2023-05-21T10:31:32;101790.99;;;24.07;57.67
63281;BME280;49406;51.044;3.766;2023-05-21T10:34:07;101782.27;;;24.12;57.75
63281;BME280;49406;51.044;3.766;2023-05-21T10:36:43;101777.38;;;24.08;57.58
63281;BME280;49406;51.044;3.766;2023-05-21T10:39:20;101773.51;;;24.06;57.80
63281;BME280;49406;51.044;3.766;2023-05-21T10:44:59;101767.91;;;23.98;57.54
63281;BME280;49406;51.044;3.766;2023-05-21T10:47:52;101767.43;;;23.44;59.05
63281;BME280;49406;51.044;3.766;2023-05-21T10:50:48;101763.30;;;23.10;60.45
63281;BME280;49406;51.044;3.766;2023-05-21T10:53:35;101759.16;;;22.73;62.21
63281;BME280;49406;51.044;3.766;2023-05-21T10:56:19;101750.81;;;22.45;63.29
63281;BME280;49406;51.044;3.766;2023-05-21T10:59:08;101751.75;;;22.30;64.28
63281;BME280;49406;51.044;3.766;2023-05-21T11:01:46;101749.29;;;22.49;64.57
63281;BME280;49406;51.044;3.766;2023-05-21T11:04:27;101748.03;;;22.56;63.71
63281;BME280;49406;51.044;3.766;2023-05-21T11:07:02;101762.73;;;22.46;64.43
63281;BME280;49406;51.044;3.766;2023-05-21T11:09:38;101763.40;;;22.47;63.76
63281;BME280;49406;51.044;3.766;2023-05-21T11:12:13;101759.98;;;22.49;64.15
63281;BME280;49406;51.044;3.766;2023-05-21T11:14:57;101756.10;;;22.61;63.15
63281;BME280;49406;51.044;3.766;2023-05-21T11:17:39;101756.98;;;22.81;62.99
63281;BME280;49406;51.044;3.766;2023-05-21T11:20:14;101758.49;;;23.21;62.47
63281;BME280;49406;51.044;3.766;2023-05-21T11:22:49;101759.33;;;23.23;61.11
63281;BME280;49406;51.044;3.766;2023-05-21T11:25:22;101753.93;;;23.01;61.95
63281;BME280;49406;51.044;3.766;2023-05-21T11:28:05;101754.91;;;23.04;62.05
63281;BME280;49406;51.044;3.766;2023-05-21T11:30:41;101755.48;;;23.08;62.20
63281;BME280;49406;51.044;3.766;2023-05-21T11:33:19;101748.70;;;23.15;61.66
63281;BME280;49406;51.044;3.766;2023-05-21T11:35:59;101748.54;;;23.20;61.33
63281;BME280;49406;51.044;3.766;2023-05-21T11:38:37;101742.73;;;23.41;61.35
63281;BME280;49406;51.044;3.766;2023-05-21T11:41:12;101740.57;;;23.70;60.71
63281;BME280;49406;51.044;3.766;2023-05-21T11:44:02;101741.53;;;24.01;58.99
63281;BME280;49406;51.044;3.766;2023-05-21T11:46:36;101737.19;;;24.08;58.24
63281;BME280;49406;51.044;3.766;2023-05-21T11:49:11;101739.58;;;23.85;57.90
63281;BME280;49406;51.044;3.766;2023-05-21T11:51:47;101730.69;;;23.61;59.48
63281;BME280;49406;51.044;3.766;2023-05-21T11:54:21;101736.23;;;23.49;59.59
63281;BME280;49406;51.044;3.766;2023-05-21T11:56:58;101735.23;;;23.36;60.35
63281;BME280;49406;51.044;3.766;2023-05-21T11:59:33;101738.00;;;23.32;60.79
63281;BME280;49406;51.044;3.766;2023-05-21T12:02:08;101740.34;;;23.26;60.69
63281;BME280;49406;51.044;3.766;2023-05-21T12:04:43;101740.03;;;22.94;61.36
63281;BME280;49406;51.044;3.766;2023-05-21T12:07:19;101737.05;;;22.79;62.56
63281;BME280;49406;51.044;3.766;2023-05-21T12:09:54;101739.20;;;22.66;62.94
63281;BME280;49406;51.044;3.766;2023-05-21T12:12:30;101740.39;;;22.42;63.71
63281;BME280;49406;51.044;3.766;2023-05-21T12:15:05;101738.16;;;22.18;64.80
63281;BME280;49406;51.044;3.766;2023-05-21T12:17:41;101745.05;;;21.98;65.88
63281;BME280;49406;51.044;3.766;2023-05-21T12:20:16;101746.20;;;21.88;66.62
63281;BME280;49406;51.044;3.766;2023-05-21T12:22:51;101743.66;;;21.82;67.23
63281;BME280;49406;51.044;3.766;2023-05-21T12:25:26;101744.98;;;21.79;67.68
63281;BME280;49406;51.044;3.766;2023-05-21T12:28:02;101745.08;;;21.83;67.67
63281;BME280;49406;51.044;3.766;2023-05-21T12:30:37;101752.08;;;21.80;67.61
63281;BME280;49406;51.044;3.766;2023-05-21T12:33:12;101745.15;;;21.65;67.99
63281;BME280;49406;51.044;3.766;2023-05-21T12:35:51;101750.30;;;21.58;68.83
63281;BME280;49406;51.044;3.766;2023-05-21T12:38:30;101749.63;;;21.57;69.25
63281;BME280;49406;51.044;3.766;2023-05-21T12:41:06;101750.18;;;21.47;69.56
63281;BME280;49406;51.044;3.766;2023-05-21T12:43:42;101747.45;;;21.43;70.24
63281;BME280;49406;51.044;3.766;2023-05-21T12:46:17;101743.38;;;21.25;71.29
63281;BME280;49406;51.044;3.766;2023-05-21T12:48:53;101737.33;;;21.16;72.23
63281;BME280;49406;51.044;3.766;2023-05-21T12:51:37;101738.92;;;21.16;73.07
63281;BME280;49406;51.044;3.766;2023-05-21T12:54:15;101734.27;;;21.18;73.93
63281;BME280;49406;51.044;3.766;2023-05-21T12:56:50;101733.92;;;21.17;74.42
63281;BME280;49406;51.044;3.766;2023-05-21T12:59:24;101729.18;;;21.23;75.17
63281;BME280;49406;51.044;3.766;2023-05-21T13:02:00;101723.24;;;21.35;73.84
63281;BME280;49406;51.044;3.766;2023-05-21T13:04:37;101719.33;;;21.58;73.53
63281;BME280;49406;51.044;3.766;2023-05-21T13:07:12;101718.96;;;21.81;73.03
63281;BME280;49406;51.044;3.766;2023-05-21T13:09:47;101724.67;;;21.94;71.74
63281;BME280;49406;51.044;3.766;2023-05-21T13:12:23;101721.10;;;22.03;71.18
63281;BME280;49406;51.044;3.766;2023-05-21T13:14:59;101719.16;;;22.16;71.43
63281;BME280;49406;51.044;3.766;2023-05-21T13:17:34;101719.17;;;22.29;69.80
63281;BME280;49406;51.044;3.766;2023-05-21T13:20:10;101720.34;;;22.26;69.15
63281;BME280;49406;51.044;3.766;2023-05-21T13:22:46;101720.55;;;22.30;68.47
63281;BME280;49406;51.044;3.766;2023-05-21T13:25:22;101719.05;;;22.35;68.02
63281;BME280;49406;51.044;3.766;2023-05-21T13:28:02;101717.70;;;22.25;68.15
63281;BME280;49406;51.044;3.766;2023-05-21T13:30:38;101712.98;;;22.21;69.00
63281;BME280;49406;51.044;3.766;2023-05-21T13:33:12;101714.33;;;22.44;69.14